Time;durP1;ratioP1;P1;durP2;ratioP2;P2;SDS_P1;SDS_P2;PMS_P1;PMS_P2;Temp;Humidity;BMP_temperature;BMP_pressure;BME280_temperature;BME280_humidity;BME280_pressure;Samples;Min_cycle;Max_cycle;Signal;HPM_P1;HPM_P2
2022/11/07 03:03:07;;;;;;;10.60;10.00;;;8.90;99.90;;;;;;4888242;29;20204;-79
2022/11/07 03:05:34;;;;;;;11.00;10.30;;;9.00;99.90;;;;;;4907853;29;20673;-80
2022/11/07 03:08:00;;;;;;;10.73;10.13;;;9.10;99.90;;;;;;4892770;29;20197;-80
2022/11/07 03:10:27;;;;;;;10.67;10.07;;;9.10;99.90;;;;;;4912891;29;20253;-80
2022/11/07 03:12:54;;;;;;;11.10;10.40;;;9.20;99.90;;;;;;4896314;29;20204;-80
2022/11/07 03:15:21;;;;;;;11.90;11.20;;;9.20;99.90;;;;;;4894343;29;20216;-81
2022/11/07 03:17:48;;;;;;;11.50;10.90;;;9.30;99.90;;;;;;4893411;29;20201;-80
2022/11/07 03:20:16;;;;;;;10.80;10.20;;;9.30;99.90;;;;;;4894334;29;20201;-80
2022/11/07 03:22:43;;;;;;;11.10;10.50;;;9.30;99.90;;;;;;4899004;29;20744;-80
2022/11/07 03:25:10;;;;;;;11.47;10.80;;;9.40;99.90;;;;;;4892706;29;20212;-80
2022/11/07 03:27:45;;;;;;;10.50;9.90;;;9.40;99.90;;;;;;4894402;29;20200;-80
2022/11/07 03:30:12;;;;;;;11.23;10.63;;;9.40;99.90;;;;;;4892796;29;20669;-80
2022/11/07 03:32:39;;;;;;;12.30;11.50;;;9.40;99.90;;;;;;4893530;29;20229;-80
2022/11/07 03:35:07;;;;;;;12.60;11.80;;;9.50;99.90;;;;;;4895499;29;20196;-80
2022/11/07 03:37:35;;;;;;;11.87;11.20;;;9.40;99.90;;;;;;4892142;29;20200;-81
2022/11/07 03:40:02;;;;;;;11.70;11.10;;;9.40;99.90;;;;;;4893770;29;20264;-80
2022/11/07 03:42:29;;;;;;;11.07;10.47;;;9.40;99.90;;;;;;4892953;29;20228;-81
2022/11/07 03:44:56;;;;;;;11.47;10.87;;;9.40;99.90;;;;;;4892440;29;20729;-80
2022/11/07 03:47:22;;;;;;;11.83;11.13;;;9.40;99.90;;;;;;4891265;29;20696;-79
2022/11/07 03:49:49;;;;;;;12.20;11.50;;;9.40;99.90;;;;;;4892364;29;20205;-80
2022/11/07 03:52:16;;;;;;;12.70;11.90;;;9.40;99.90;;;;;;4891667;29;20224;-83
2022/11/07 03:54:44;;;;;;;11.90;11.20;;;9.40;99.90;;;;;;4910964;29;20204;-84
2022/11/07 03:57:11;;;;;;;12.87;12.07;;;9.40;99.90;;;;;;4907920;29;20208;-83
2022/11/07 03:59:38;;;;;;;14.10;12.93;;;9.50;99.90;;;;;;4892275;29;20271;-80
2022/11/07 04:02:05;;;;;;;12.63;11.83;;;9.60;99.90;;;;;;4886983;29;20232;-78
2022/11/07 04:04:32;;;;;;;12.53;11.73;;;9.50;99.90;;;;;;4892158;29;20219;-79
2022/11/07 04:06:59;;;;;;;12.50;11.73;;;9.60;99.90;;;;;;4898742;29;20220;-79
2022/11/07 04:09:25;;;;;;;13.00;12.10;;;9.70;99.90;;;;;;4896849;29;20232;-79
2022/11/07 04:17:36;;;;;;;12.30;11.60;;;9.70;99.90;;;;;;4863774;29;20235;-79
2022/11/07 04:20:05;;;;;;;12.90;12.20;;;9.70;99.90;;;;;;4886908;29;20268;-82
2022/11/07 04:22:32;;;;;;;12.33;11.63;;;9.70;99.90;;;;;;4894173;29;20230;-83
2022/11/07 04:24:59;;;;;;;12.13;11.43;;;9.70;99.90;;;;;;4901335;29;20209;-81
2022/11/07 04:27:41;;;;;;;12.20;11.50;;;9.70;99.90;;;;;;4893455;29;20212;-83
2022/11/07 04:30:19;;;;;;;12.87;12.13;;;9.70;99.90;;;;;;4892270;29;20216;-83
2022/11/07 04:32:46;;;;;;;12.70;11.90;;;9.70;99.90;;;;;;4894130;29;20310;-84
2022/11/07 04:35:13;;;;;;;12.37;11.67;;;9.70;99.90;;;;;;4895050;29;20224;-84
2022/11/07 04:37:41;;;;;;;12.47;11.77;;;9.60;99.90;;;;;;4896395;29;20212;-82
2022/11/07 04:40:09;;;;;;;13.63;12.73;;;9.60;99.90;;;;;;4889667;29;20218;-82
2022/11/07 04:42:37;;;;;;;12.80;12.00;;;9.60;99.90;;;;;;4888710;29;20228;-83
2022/11/07 04:45:05;;;;;;;12.60;11.90;;;9.50;99.90;;;;;;4892772;29;20200;-82
2022/11/07 04:47:32;;;;;;;13.13;12.27;;;9.50;99.90;;;;;;4889692;29;20205;-82
2022/11/07 04:49:59;;;;;;;13.20;12.50;;;9.50;99.90;;;;;;4890712;29;20414;-82
2022/11/07 04:52:26;;;;;;;13.33;12.53;;;9.50;99.90;;;;;;4897484;29;20216;-84
2022/11/07 04:54:53;;;;;;;13.47;12.73;;;9.40;99.90;;;;;;4896210;29;20204;-82
2022/11/07 04:57:20;;;;;;;12.87;12.07;;;9.30;99.90;;;;;;4889260;29;20231;-83
2022/11/07 04:59:48;;;;;;;12.77;12.07;;;9.30;99.90;;;;;;4893002;29;20205;-81
2022/11/07 05:02:15;;;;;;;13.17;12.40;;;9.20;99.90;;;;;;4892766;29;20315;-80
2022/11/07 05:04:42;;;;;;;12.77;11.97;;;9.20;99.90;;;;;;4889587;29;20220;-80
2022/11/07 05:07:09;;;;;;;12.70;12.00;;;9.20;99.90;;;;;;4895526;29;20211;-81
2022/11/07 05:09:36;;;;;;;12.80;12.00;;;9.20;99.90;;;;;;4894208;29;20236;-82
2022/11/07 05:12:04;;;;;;;12.60;11.90;;;9.20;99.90;;;;;;4895578;29;20212;-81
2022/11/07 05:14:31;;;;;;;12.40;11.70;;;9.20;99.90;;;;;;4891872;29;20225;-82
2022/11/07 05:16:59;;;;;;;12.40;11.70;;;9.10;99.90;;;;;;4877587;29;20206;-82
2022/11/07 05:19:26;;;;;;;12.80;12.10;;;9.10;99.90;;;;;;4886118;29;20209;-81
2022/11/07 05:24:34;;;;;;;11.93;11.20;;;9.10;99.90;;;;;;4877629;29;20212;-82
2022/11/07 05:27:01;;;;;;;12.37;11.63;;;9.10;99.90;;;;;;4877735;29;20580;-82
2022/11/07 05:29:28;;;;;;;12.30;11.60;;;9.10;99.90;;;;;;4892096;29;20201;-81
2022/11/07 05:31:54;;;;;;;12.63;11.93;;;9.10;99.90;;;;;;4891304;29;20233;-82
2022/11/07 05:34:23;;;;;;;12.60;11.90;;;9.10;99.90;;;;;;4892599;29;20215;-83
2022/11/07 05:36:49;;;;;;;12.83;12.13;;;9.10;99.90;;;;;;4890159;29;20200;-82
2022/11/07 05:39:16;;;;;;;14.10;13.17;;;9.10;99.90;;;;;;4891879;29;20212;-82
2022/11/07 05:41:43;;;;;;;12.53;11.83;;;9.10;99.90;;;;;;4893466;29;20458;-82
2022/11/07 05:44:10;;;;;;;12.60;11.90;;;9.20;99.90;;;;;;4893303;29;20220;-83
2022/11/07 05:46:37;;;;;;;12.50;11.80;;;9.30;99.90;;;;;;4889586;29;20208;-82
2022/11/07 05:49:04;;;;;;;12.60;11.80;;;9.30;99.90;;;;;;4889121;29;20216;-82
2022/11/07 05:51:32;;;;;;;12.23;11.53;;;9.40;99.90;;;;;;4888107;29;20607;-82
2022/11/07 05:53:59;;;;;;;12.67;11.97;;;9.40;99.90;;;;;;4892180;29;20195;-82
2022/11/07 05:56:26;;;;;;;12.43;11.73;;;9.50;99.90;;;;;;4890880;29;20200;-82
2022/11/07 05:58:53;;;;;;;12.80;12.10;;;9.50;99.90;;;;;;4892154;29;20628;-82
2022/11/07 06:01:19;;;;;;;12.40;11.70;;;9.50;99.90;;;;;;4895080;29;20228;-81
2022/11/07 06:03:46;;;;;;;13.00;12.20;;;9.50;99.90;;;;;;4890817;29;20216;-82
2022/11/07 06:06:13;;;;;;;13.00;12.30;;;9.50;99.90;;;;;;4890181;29;20219;-82
2022/11/07 06:08:41;;;;;;;14.83;13.60;;;9.40;99.90;;;;;;4893238;29;20196;-82
2022/11/07 06:11:08;;;;;;;14.10;13.20;;;9.40;99.90;;;;;;4890386;29;20294;-82
2022/11/07 06:13:35;;;;;;;15.00;14.00;;;9.40;99.90;;;;;;4892307;29;20673;-82
2022/11/07 06:16:02;;;;;;;14.30;13.33;;;9.30;99.90;;;;;;4892030;29;20201;-82
2022/11/07 06:18:29;;;;;;;14.50;13.60;;;9.30;99.90;;;;;;4901463;29;20209;-82
2022/11/07 06:20:56;;;;;;;14.07;13.00;;;9.30;99.90;;;;;;4899087;29;20216;-82
2022/11/07 06:23:23;;;;;;;13.30;12.50;;;9.20;99.90;;;;;;4892288;29;20232;-82
2022/11/07 06:25:51;;;;;;;12.93;12.03;;;9.20;99.90;;;;;;4897795;29;20568;-81
2022/11/07 06:28:18;;;;;;;13.27;12.47;;;9.30;99.90;;;;;;4896095;29;20197;-82
2022/11/07 06:30:45;;;;;;;14.13;13.23;;;9.30;99.90;;;;;;4896102;29;20255;-81
2022/11/07 06:33:15;;;;;;;12.97;12.17;;;9.40;99.90;;;;;;4898378;29;20192;-82
2022/11/07 06:35:42;;;;;;;13.10;12.20;;;9.40;99.90;;;;;;4894411;29;20197;-82
2022/11/07 06:38:11;;;;;;;12.93;12.23;;;9.50;99.90;;;;;;4894430;29;20196;-82
2022/11/07 06:40:38;;;;;;;12.90;12.10;;;9.50;99.90;;;;;;4898188;29;20209;-82
2022/11/07 06:43:08;;;;;;;12.60;11.80;;;9.60;99.90;;;;;;4896073;29;20216;-82
2022/11/07 06:45:35;;;;;;;13.23;12.43;;;9.60;99.90;;;;;;4896927;29;20204;-82
2022/11/07 06:48:02;;;;;;;12.83;12.03;;;9.70;99.90;;;;;;4901704;29;20197;-82
2022/11/07 06:50:29;;;;;;;12.90;12.10;;;9.80;99.90;;;;;;4892319;29;20204;-82
2022/11/07 06:52:56;;;;;;;12.73;11.93;;;9.80;99.90;;;;;;4896733;29;20218;-82
2022/11/07 06:55:23;;;;;;;12.53;11.83;;;10.00;99.90;;;;;;4898470;29;20248;-78
2022/11/07 06:57:49;;;;;;;11.97;11.27;;;10.00;99.90;;;;;;4894507;29;20201;-79
2022/11/07 07:00:18;;;;;;;12.10;11.50;;;10.10;99.90;;;;;;4894173;29;20212;-79
2022/11/07 07:02:45;;;;;;;12.90;12.00;;;10.10;99.90;;;;;;4898267;29;20264;-79
2022/11/07 07:05:12;;;;;;;7.70;7.20;;;10.10;99.90;;;;;;4898782;29;20212;-79
2022/11/07 07:07:39;;;;;;;4.90;4.47;;;10.10;99.90;;;;;;4896444;29;20201;-79
2022/11/07 07:10:07;;;;;;;4.70;4.40;;;10.10;99.90;;;;;;4895033;29;20217;-79
2022/11/07 07:12:34;;;;;;;6.20;5.70;;;10.00;99.90;;;;;;4900187;29;20220;-79
2022/11/07 07:15:01;;;;;;;5.67;5.27;;;10.00;99.90;;;;;;4896222;29;20197;-79
2022/11/07 07:17:29;;;;;;;11.27;10.57;;;10.00;99.90;;;;;;4891946;29;20310;-79
2022/11/07 07:19:56;;;;;;;6.13;5.73;;;10.10;99.90;;;;;;4897723;29;20197;-79
2022/11/07 07:22:23;;;;;;;4.40;4.07;;;10.20;99.90;;;;;;4899793;29;20220;-79
2022/11/07 07:24:52;;;;;;;3.23;3.00;;;10.30;99.90;;;;;;4895153;29;20224;-79
2022/11/07 07:27:20;;;;;;;3.30;3.10;;;10.40;99.90;;;;;;4893662;29;20209;-79
2022/11/07 07:29:46;;;;;;;11.67;11.07;;;10.50;99.90;;;;;;4894955;29;20296;-79
2022/11/07 07:32:13;;;;;;;9.23;8.63;;;10.60;99.90;;;;;;4897002;29;20220;-78
2022/11/07 07:34:42;;;;;;;7.50;6.73;;;10.70;99.90;;;;;;4892768;29;20404;-79
2022/11/07 07:37:09;;;;;;;9.60;9.10;;;10.80;99.90;;;;;;4892315;29;20760;-79
2022/11/07 07:39:36;;;;;;;8.73;8.13;;;10.90;99.90;;;;;;4892325;29;20224;-78
2022/11/07 07:42:03;;;;;;;6.80;6.30;;;11.00;99.90;;;;;;4894956;29;20567;-78
2022/11/07 07:44:32;;;;;;;11.50;10.80;;;11.10;99.90;;;;;;4894307;29;20210;-78
2022/11/07 07:46:59;;;;;;;7.80;7.33;;;11.30;99.90;;;;;;4898514;29;20211;-79
2022/11/07 07:49:26;;;;;;;9.17;8.67;;;11.40;99.90;;;;;;4898126;29;20206;-82
2022/11/07 07:51:54;;;;;;;6.43;6.03;;;11.40;99.90;;;;;;4895658;29;20221;-81
2022/11/07 07:54:21;;;;;;;11.97;11.27;;;11.60;99.90;;;;;;4897192;29;20698;-80
2022/11/07 07:56:48;;;;;;;7.73;7.33;;;11.70;99.90;;;;;;4897512;29;20210;-81
2022/11/07 07:59:14;;;;;;;6.20;5.80;;;11.80;99.90;;;;;;4896396;29;20210;-82
2022/11/07 08:01:41;;;;;;;7.80;7.33;;;12.00;99.90;;;;;;4896751;29;20256;-80
2022/11/07 08:04:08;;;;;;;8.70;7.97;;;12.20;99.90;;;;;;4894661;29;20688;-81
2022/11/07 08:06:36;;;;;;;11.23;10.43;;;12.30;99.90;;;;;;4894066;29;20195;-83
2022/11/07 08:09:05;;;;;;;11.13;10.40;;;12.40;99.90;;;;;;4892288;29;20208;-81
2022/11/07 08:11:32;;;;;;;11.40;10.70;;;12.50;99.90;;;;;;4896273;29;20243;-82
2022/11/07 08:13:59;;;;;;;11.73;10.93;;;12.80;99.90;;;;;;4898100;29;20192;-81
2022/11/07 08:16:26;;;;;;;11.90;11.10;;;12.90;99.90;;;;;;4894877;29;20212;-83
2022/11/07 08:18:53;;;;;;;11.17;10.57;;;13.00;99.90;;;;;;4897175;29;20247;-81
2022/11/07 08:21:20;;;;;;;10.83;10.23;;;12.90;99.90;;;;;;4894425;29;20228;-81
2022/11/07 08:23:48;;;;;;;11.60;10.90;;;12.90;99.90;;;;;;4893101;29;20220;-82
2022/11/07 08:26:16;;;;;;;11.60;10.90;;;12.90;99.90;;;;;;4892154;29;20686;-83
2022/11/07 08:28:43;;;;;;;12.37;11.40;;;12.90;99.90;;;;;;4893781;29;20205;-82
2022/11/07 08:31:11;;;;;;;11.50;10.73;;;12.80;99.90;;;;;;4893826;29;20236;-81
2022/11/07 08:33:38;;;;;;;12.20;11.40;;;12.80;99.90;;;;;;4896622;29;20231;-81
2022/11/07 08:36:07;;;;;;;13.00;11.97;;;12.80;99.90;;;;;;4897873;29;20580;-81
2022/11/07 08:38:35;;;;;;;12.10;11.30;;;12.90;99.90;;;;;;4893161;29;20196;-82
2022/11/07 08:41:02;;;;;;;11.60;10.90;;;12.90;99.90;;;;;;4892697;29;20640;-81
2022/11/07 08:43:30;;;;;;;12.77;12.03;;;12.90;99.90;;;;;;4887961;29;20251;-82
2022/11/07 08:45:57;;;;;;;13.90;13.10;;;12.90;99.90;;;;;;4897494;29;20196;-83
2022/11/07 08:48:24;;;;;;;11.80;11.10;;;13.00;99.90;;;;;;4892029;29;20204;-81
2022/11/07 08:50:53;;;;;;;15.43;14.43;;;13.00;99.90;;;;;;4894642;29;20708;-81
2022/11/07 08:53:20;;;;;;;13.00;12.20;;;13.00;99.90;;;;;;4893061;29;20201;-81
2022/11/07 08:55:46;;;;;;;12.10;11.30;;;13.00;99.90;;;;;;4891349;29;20192;-81
2022/11/07 08:58:14;;;;;;;12.37;11.57;;;13.00;99.90;;;;;;4890757;29;20208;-82
2022/11/07 09:00:43;;;;;;;11.10;10.40;;;13.00;99.90;;;;;;4892001;29;20468;-80
2022/11/07 09:03:12;;;;;;;10.20;9.60;;;13.10;99.90;;;;;;4893891;29;20196;-81
2022/11/07 09:05:40;;;;;;;10.27;9.53;;;13.20;99.90;;;;;;4896211;29;20197;-80
2022/11/07 09:08:07;;;;;;;10.70;9.97;;;13.30;99.90;;;;;;4889615;29;20201;-81
2022/11/07 09:10:33;;;;;;;10.37;9.67;;;13.40;99.90;;;;;;4890727;29;20216;-81
2022/11/07 09:13:00;;;;;;;11.37;10.50;;;13.50;99.90;;;;;;4897695;29;20219;-82
2022/11/07 09:15:27;;;;;;;12.13;11.43;;;13.60;99.90;;;;;;4898902;29;20201;-81
2022/11/07 09:17:56;;;;;;;11.03;10.23;;;13.70;99.90;;;;;;4895328;29;20216;-81
2022/11/07 09:20:22;;;;;;;10.07;9.47;;;13.70;99.90;;;;;;4895636;29;20201;-83
2022/11/07 09:22:49;;;;;;;10.63;9.93;;;13.80;99.90;;;;;;4897215;29;20200;-82
2022/11/07 09:25:16;;;;;;;10.77;10.07;;;13.90;99.90;;;;;;4890324;29;20311;-81
2022/11/07 09:27:45;;;;;;;11.37;10.43;;;13.90;99.90;;;;;;4889352;29;20201;-79
2022/11/07 09:30:13;;;;;;;12.03;11.23;;;14.00;99.90;;;;;;4891731;29;20344;-79
2022/11/07 09:32:40;;;;;;;12.83;11.73;;;14.00;99.90;;;;;;4891430;29;20224;-80
2022/11/07 09:35:09;;;;;;;12.77;11.77;;;14.00;99.90;;;;;;4891547;29;20640;-79
2022/11/07 09:37:37;;;;;;;12.03;11.23;;;14.00;99.90;;;;;;4889410;29;20212;-80
2022/11/07 09:40:05;;;;;;;11.40;10.60;;;14.10;99.90;;;;;;4885556;29;20214;-79
2022/11/07 09:42:43;;;;;;;11.27;10.37;;;14.30;99.90;;;;;;4894632;29;20224;-80
2022/11/07 09:45:13;;;;;;;10.83;9.83;;;14.40;99.90;;;;;;4888838;29;20234;-80
2022/11/07 09:47:44;;;;;;;11.73;10.73;;;14.50;99.90;;;;;;4890133;29;20284;-79
2022/11/07 09:50:17;;;;;;;11.67;10.87;;;14.50;99.90;;;;;;4893949;29;20605;-80
2022/11/07 09:52:50;;;;;;;11.63;10.77;;;14.50;99.90;;;;;;4896555;29;20687;-79
2022/11/07 09:55:21;;;;;;;12.40;11.20;;;14.50;99.90;;;;;;4894471;29;20189;-80
2022/11/07 09:57:50;;;;;;;11.27;10.40;;;14.50;99.90;;;;;;4897996;29;20209;-79
2022/11/07 10:00:19;;;;;;;10.97;10.27;;;14.30;99.90;;;;;;4899355;29;20204;-79
2022/11/07 10:02:48;;;;;;;10.50;9.90;;;14.30;99.90;;;;;;4894267;29;20232;-80
2022/11/07 10:05:34;;;;;;;10.07;9.37;;;14.30;99.90;;;;;;4893667;29;20702;-80
2022/11/07 10:08:06;;;;;;;10.73;9.90;;;14.30;99.90;;;;;;4894179;29;20245;-79
2022/11/07 10:10:41;;;;;;;10.37;9.73;;;14.30;99.90;;;;;;4897286;29;20206;-79
2022/11/07 10:13:28;;;;;;;10.83;10.10;;;14.30;99.90;;;;;;4894378;29;20658;-80
2022/11/07 10:16:06;;;;;;;11.33;10.27;;;14.20;99.90;;;;;;4894822;29;20209;-79
2022/11/07 10:18:46;;;;;;;10.57;9.87;;;14.20;99.90;;;;;;4900073;29;20240;-79
2022/11/07 10:21:23;;;;;;;10.13;9.43;;;14.20;99.90;;;;;;4899626;29;20244;-80
2022/11/07 10:24:02;;;;;;;10.73;9.93;;;14.30;99.90;;;;;;4893980;29;20216;-80
2022/11/07 10:26:31;;;;;;;9.60;8.90;;;14.40;99.90;;;;;;4898241;29;20572;-80
2022/11/07 10:29:01;;;;;;;9.97;9.07;;;14.50;99.90;;;;;;4897348;29;20201;-80
2022/11/07 10:31:32;;;;;;;11.33;10.33;;;14.60;99.90;;;;;;4891988;29;20221;-79
2022/11/07 10:34:03;;;;;;;4.80;4.40;;;14.60;99.90;;;;;;4895232;29;20200;-79
2022/11/07 10:36:32;;;;;;;9.50;8.60;;;14.60;99.90;;;;;;4886072;29;20292;-79
2022/11/07 10:39:01;;;;;;;6.90;6.33;;;14.60;99.90;;;;;;4891484;29;20260;-79
2022/11/07 10:41:29;;;;;;;8.90;8.27;;;14.70;99.90;;;;;;4895347;29;20318;-80
2022/11/07 10:43:59;;;;;;;10.20;9.60;;;14.80;99.90;;;;;;4893727;29;20227;-80
2022/11/07 10:46:32;;;;;;;10.80;10.10;;;14.90;99.90;;;;;;4891181;29;20229;-79
2022/11/07 10:49:01;;;;;;;11.33;10.53;;;15.00;99.90;;;;;;4896546;29;20208;-80
2022/11/07 10:51:36;;;;;;;10.40;9.70;;;15.10;99.90;;;;;;4893271;29;20237;-80
2022/11/07 10:54:04;;;;;;;10.47;9.67;;;15.20;99.90;;;;;;4889574;29;20195;-80
2022/11/07 10:56:31;;;;;;;8.50;7.90;;;15.20;99.90;;;;;;4890992;29;20697;-80
2022/11/07 10:59:01;;;;;;;6.80;6.20;;;15.20;99.90;;;;;;4894925;29;20206;-80
2022/11/07 11:01:28;;;;;;;5.50;2.70;;;15.30;99.90;;;;;;4889026;29;20245;-80
2022/11/07 11:03:55;;;;;;;3.20;2.80;;;15.30;99.90;;;;;;4893406;29;20224;-79
2022/11/07 11:06:29;;;;;;;8.87;8.07;;;15.30;99.90;;;;;;4893048;29;20212;-80
2022/11/07 11:08:59;;;;;;;3.27;3.07;;;15.30;99.90;;;;;;4894584;29;20209;-79
2022/11/07 11:11:32;;;;;;;2.93;2.63;;;15.40;99.90;;;;;;4894429;29;20222;-79
2022/11/07 11:14:04;;;;;;;4.70;4.40;;;15.50;99.90;;;;;;4895286;29;20536;-79
2022/11/07 11:16:38;;;;;;;3.00;2.80;;;15.50;99.90;;;;;;4890412;29;20208;-79
2022/11/07 11:19:07;;;;;;;3.60;3.30;;;15.50;99.90;;;;;;4897737;29;20302;-79
2022/11/07 11:21:42;;;;;;;6.60;6.20;;;15.50;99.90;;;;;;4892705;29;20229;-80
2022/11/07 11:24:36;;;;;;;3.13;2.83;;;15.50;99.90;;;;;;4893812;29;20223;-79
2022/11/07 11:27:10;;;;;;;3.20;2.90;;;15.50;99.90;;;;;;4892562;29;20205;-80
2022/11/07 11:29:42;;;;;;;3.33;3.03;;;15.50;99.90;;;;;;4896492;29;20587;-79
2022/11/07 11:32:20;;;;;;;2.90;2.60;;;15.60;99.90;;;;;;4896691;29;20635;-79
2022/11/07 11:34:55;;;;;;;3.03;2.77;;;15.60;99.90;;;;;;4892522;29;20196;-79
2022/11/07 11:37:23;;;;;;;9.50;8.90;;;15.70;99.90;;;;;;4897124;29;20578;-79
2022/11/07 11:40:01;;;;;;;4.20;2.90;;;15.70;99.90;;;;;;4892957;29;20232;-79
2022/11/07 11:42:34;;;;;;;3.87;3.30;;;15.70;99.90;;;;;;4891880;29;20306;-80
2022/11/07 11:45:14;;;;;;;3.17;2.67;;;15.70;99.90;;;;;;4891676;29;20264;-79
2022/11/07 11:47:47;;;;;;;3.00;2.80;;;15.80;99.90;;;;;;4888641;29;20224;-79
2022/11/07 11:50:18;;;;;;;3.50;2.80;;;15.90;99.90;;;;;;4897658;29;20207;-79
2022/11/07 11:52:45;;;;;;;3.03;2.77;;;15.90;99.90;;;;;;4896008;29;20398;-80
2022/11/07 11:55:16;;;;;;;8.47;7.77;;;15.90;99.90;;;;;;4893327;29;20194;-79
2022/11/07 11:57:54;;;;;;;9.80;9.20;;;16.00;99.90;;;;;;4894022;29;20275;-79
2022/11/07 12:00:23;;;;;;;9.53;8.83;;;16.00;99.90;;;;;;4891535;29;20212;-79
2022/11/07 12:03:18;;;;;;;9.43;8.77;;;16.00;99.90;;;;;;4893319;29;20202;-79
2022/11/07 12:05:59;;;;;;;11.43;10.53;;;16.00;99.90;;;;;;4887969;29;20221;-80
2022/11/07 12:08:39;;;;;;;10.83;10.03;;;16.00;99.90;;;;;;4893740;29;20207;-80
2022/11/07 12:11:20;;;;;;;9.70;9.00;;;15.90;99.90;;;;;;4892759;29;20224;-80
2022/11/07 12:13:54;;;;;;;10.83;10.13;;;15.80;99.90;;;;;;4895126;29;20223;-79
2022/11/07 12:16:29;;;;;;;11.00;10.00;;;15.70;99.90;;;;;;4898163;29;20711;-80
2022/11/07 12:19:04;;;;;;;10.47;9.83;;;15.80;99.90;;;;;;4898484;29;20552;-80
2022/11/07 12:21:32;;;;;;;11.07;10.37;;;15.80;99.90;;;;;;4898452;29;20220;-80
2022/11/07 12:24:16;;;;;;;10.60;9.90;;;15.80;99.90;;;;;;4899435;29;20247;-80
2022/11/07 12:26:50;;;;;;;9.73;9.13;;;15.70;99.90;;;;;;4892751;29;20260;-80
2022/11/07 12:29:26;;;;;;;5.03;4.27;;;15.80;99.90;;;;;;4898252;29;20794;-80
2022/11/07 12:32:07;;;;;;;8.00;7.50;;;15.90;99.90;;;;;;4895974;29;20223;-84
2022/11/07 12:34:44;;;;;;;4.20;3.90;;;16.00;99.90;;;;;;4892759;29;20196;-79
2022/11/07 12:37:34;;;;;;;9.70;9.10;;;16.10;99.90;;;;;;4893933;29;20214;-80
2022/11/07 12:40:13;;;;;;;11.00;10.10;;;16.20;99.90;;;;;;4894201;29;20211;-79
2022/11/07 12:42:59;;;;;;;10.60;9.80;;;16.20;99.90;;;;;;4885640;29;20220;-80
2022/11/07 12:45:46;;;;;;;10.30;9.70;;;16.40;99.90;;;;;;4900657;29;20209;-79
2022/11/07 12:48:30;;;;;;;10.10;9.50;;;16.50;99.90;;;;;;4895172;29;20227;-80
2022/11/07 12:51:06;;;;;;;8.23;7.73;;;16.50;99.90;;;;;;4901273;29;20648;-79
2022/11/07 12:53:40;;;;;;;8.70;8.10;;;16.40;99.90;;;;;;4899939;29;20230;-80
2022/11/07 12:56:12;;;;;;;10.00;9.40;;;16.30;99.90;;;;;;4896223;29;20191;-79
2022/11/07 12:58:43;;;;;;;10.40;9.60;;;16.20;99.90;;;;;;4900518;29;20203;-80
2022/11/07 13:01:13;;;;;;;10.50;9.70;;;16.20;99.90;;;;;;4895361;29;20236;-81
2022/11/07 13:03:55;;;;;;;10.40;9.70;;;16.10;99.90;;;;;;4899078;29;20204;-80
2022/11/07 13:06:30;;;;;;;9.93;9.33;;;16.20;99.90;;;;;;4905095;29;20223;-80
2022/11/07 13:09:05;;;;;;;10.17;9.57;;;16.20;99.90;;;;;;4895635;29;20253;-80
2022/11/07 13:11:37;;;;;;;11.17;10.43;;;16.20;99.90;;;;;;4893105;29;20332;-79
2022/11/07 13:14:27;;;;;;;3.57;2.83;;;16.20;99.90;;;;;;4895225;29;20268;-80
2022/11/07 13:17:11;;;;;;;4.03;2.37;;;16.20;99.90;;;;;;4892452;29;20204;-80
2022/11/07 13:19:40;;;;;;;7.67;7.07;;;16.30;99.90;;;;;;4892685;29;20563;-80
2022/11/07 13:22:20;;;;;;;2.27;2.07;;;16.30;99.90;;;;;;4894262;29;20250;-80
2022/11/07 13:24:53;;;;;;;3.10;2.40;;;16.30;99.90;;;;;;4894099;29;20216;-80
2022/11/07 13:27:23;;;;;;;9.40;8.87;;;16.40;99.90;;;;;;4892845;29;20220;-80
2022/11/07 13:29:51;;;;;;;10.50;9.90;;;16.40;99.90;;;;;;4915881;29;20582;-80
2022/11/07 13:32:18;;;;;;;9.53;8.90;;;16.50;99.90;;;;;;4894390;29;20236;-80
2022/11/07 13:34:49;;;;;;;10.07;9.47;;;16.40;99.90;;;;;;4893522;29;20228;-81
2022/11/07 13:37:22;;;;;;;9.53;8.93;;;16.30;99.90;;;;;;4897136;29;20209;-80
2022/11/07 13:39:53;;;;;;;10.17;9.43;;;16.10;99.90;;;;;;4894042;29;20666;-81
2022/11/07 13:42:21;;;;;;;8.10;7.27;;;16.10;99.90;;;;;;4891078;29;20217;-80
2022/11/07 13:44:55;;;;;;;9.97;9.37;;;16.00;99.90;;;;;;4895703;29;20231;-81
2022/11/07 13:47:28;;;;;;;11.20;10.50;;;16.00;99.90;;;;;;4893041;29;20209;-81
2022/11/07 13:50:09;;;;;;;4.40;3.10;;;16.10;99.90;;;;;;4896116;29;20209;-80
2022/11/07 13:52:41;;;;;;;2.60;2.40;;;16.00;99.90;;;;;;4886091;29;20226;-81
2022/11/07 13:55:15;;;;;;;2.70;2.40;;;16.00;99.90;;;;;;4891393;29;20216;-79
2022/11/07 13:57:45;;;;;;;2.60;2.30;;;15.90;99.90;;;;;;4892807;29;20210;-80
2022/11/07 14:00:18;;;;;;;4.40;2.00;;;15.90;99.90;;;;;;4893054;29;20222;-80
2022/11/07 14:02:51;;;;;;;5.00;2.33;;;15.80;99.90;;;;;;4896122;29;20647;-80
2022/11/07 14:05:20;;;;;;;2.20;2.00;;;15.90;99.90;;;;;;4898846;29;20620;-81
2022/11/07 14:07:50;;;;;;;2.40;2.20;;;15.90;99.90;;;;;;4897078;29;20551;-80
2022/11/07 14:10:26;;;;;;;2.73;2.27;;;15.90;99.90;;;;;;4893397;29;20551;-80
2022/11/07 14:12:59;;;;;;;3.40;2.47;;;15.90;99.90;;;;;;4884996;29;20220;-80
2022/11/07 14:15:28;;;;;;;4.00;3.67;;;15.80;99.90;;;;;;4898997;29;20210;-80
2022/11/07 14:17:55;;;;;;;5.27;4.60;;;15.80;99.90;;;;;;4893783;29;20575;-80
2022/11/07 14:20:22;;;;;;;5.17;4.87;;;15.70;99.90;;;;;;4893381;29;20200;-80
2022/11/07 14:22:51;;;;;;;5.80;5.40;;;15.70;99.90;;;;;;4887259;29;20231;-81
2022/11/07 14:25:25;;;;;;;12.23;11.43;;;15.60;99.90;;;;;;4890974;29;20253;-80
2022/11/07 14:27:52;;;;;;;11.63;10.93;;;15.50;99.90;;;;;;4892515;29;20208;-81
2022/11/07 14:30:22;;;;;;;10.07;9.43;;;15.50;99.90;;;;;;4889471;29;20332;-81
2022/11/07 14:32:52;;;;;;;7.87;7.37;;;15.40;99.90;;;;;;4892473;29;20272;-80
2022/11/07 14:35:22;;;;;;;11.20;10.60;;;15.20;99.90;;;;;;4893512;29;20193;-81
2022/11/07 14:37:49;;;;;;;10.70;10.00;;;15.20;99.90;;;;;;4898237;29;20207;-81
2022/11/07 14:40:16;;;;;;;9.97;9.37;;;15.10;99.90;;;;;;4899639;29;20732;-81
2022/11/07 14:42:44;;;;;;;10.60;9.90;;;15.00;99.90;;;;;;4895398;29;20220;-81
2022/11/07 14:45:14;;;;;;;10.77;10.00;;;14.90;99.90;;;;;;4894356;29;20233;-81
2022/11/07 14:47:42;;;;;;;10.30;9.70;;;14.80;99.90;;;;;;4894953;29;20221;-80
2022/11/07 14:50:16;;;;;;;10.87;10.20;;;14.80;99.90;;;;;;4897628;29;20222;-81
2022/11/07 14:52:53;;;;;;;10.30;9.70;;;14.80;99.90;;;;;;4897092;29;20282;-81
2022/11/07 14:55:29;;;;;;;10.47;9.77;;;14.70;99.90;;;;;;4895626;29;20685;-81
2022/11/07 14:57:59;;;;;;;7.63;7.13;;;14.60;99.90;;;;;;4891753;29;20458;-83
2022/11/07 15:00:26;;;;;;;11.33;10.63;;;14.60;99.90;;;;;;4898064;29;20214;-81
2022/11/07 15:02:55;;;;;;;11.30;10.60;;;14.60;99.90;;;;;;4898103;29;20206;-82
2022/11/07 15:05:26;;;;;;;11.43;10.50;;;14.50;99.90;;;;;;4894178;29;20224;-82
2022/11/07 15:07:54;;;;;;;10.37;9.73;;;14.50;99.90;;;;;;4896375;29;20663;-81
2022/11/07 15:10:29;;;;;;;9.90;9.30;;;14.40;99.90;;;;;;4901705;29;20585;-78
2022/11/07 15:12:58;;;;;;;10.60;9.90;;;14.40;99.90;;;;;;4899324;29;20200;-83
2022/11/07 15:15:28;;;;;;;10.40;9.63;;;14.30;99.90;;;;;;4898506;29;20206;-83
2022/11/07 15:17:57;;;;;;;10.87;10.00;;;14.20;99.90;;;;;;4896221;29;20221;-83
2022/11/07 15:20:36;;;;;;;11.43;10.60;;;14.10;99.90;;;;;;4890662;29;20209;-82
2022/11/07 15:23:05;;;;;;;10.80;9.80;;;14.00;99.90;;;;;;4904963;29;20211;-83
2022/11/07 15:25:37;;;;;;;10.67;9.87;;;14.00;99.90;;;;;;4897643;29;20608;-83
2022/11/07 15:28:22;;;;;;;10.20;9.57;;;13.90;99.90;;;;;;4896822;29;20208;-82
2022/11/07 15:30:50;;;;;;;10.60;9.80;;;13.70;99.90;;;;;;4896121;29;20253;-82
2022/11/07 15:33:18;;;;;;;10.33;9.73;;;13.60;99.90;;;;;;4899244;29;20199;-81
2022/11/07 15:35:49;;;;;;;10.90;10.20;;;13.50;99.90;;;;;;4891954;29;20209;-82
2022/11/07 15:38:18;;;;;;;11.23;10.53;;;13.40;99.90;;;;;;4897305;29;20254;-82
2022/11/07 15:40:45;;;;;;;11.77;10.97;;;13.30;99.90;;;;;;4894454;29;20225;-82
2022/11/07 15:43:12;;;;;;;11.47;10.63;;;13.20;99.90;;;;;;4892418;29;20203;-83
2022/11/07 15:45:40;;;;;;;11.40;10.63;;;13.00;99.90;;;;;;4898745;29;20701;-83
2022/11/07 15:48:08;;;;;;;11.60;10.90;;;12.90;99.90;;;;;;4892325;29;20670;-82
2022/11/07 15:50:41;;;;;;;11.30;10.60;;;12.80;99.90;;;;;;4899946;29;20201;-82
2022/11/07 15:53:15;;;;;;;11.33;10.63;;;12.70;99.90;;;;;;4894009;29;20201;-83
2022/11/07 15:55:42;;;;;;;11.50;10.80;;;12.60;99.90;;;;;;4898161;29;20212;-84
2022/11/07 15:58:12;;;;;;;11.97;11.10;;;12.50;99.90;;;;;;4893294;29;20201;-81
2022/11/07 16:00:38;;;;;;;11.60;10.87;;;12.40;99.90;;;;;;4890230;29;20288;-83
2022/11/07 16:03:05;;;;;;;11.37;10.67;;;12.30;99.90;;;;;;4879574;29;20642;-83